Terminal Aerodrome Forecast
Issued by NWS

Home | Current Version | Previous Version | Text Only | Print | Product List | Glossary On
Versions: 1 2 3 4 5 6 7 8 9 10 11 12 13 14 15 16
000
FTUS46 KSTO 221100
TAFMHR
TAF
KMHR 221140Z 2212/2312 33006KT 1/4SM FG OVC002
      TEMPO 2212/2215 1SM BR BKN005 OVC012
     FM221800 32008KT 6SM BR BKN007
     FM222000 32010KT P6SM SCT010
     FM230600 36005KT 6SM BR SCT250
     FM230800 28006KT 3SM BR FEW250
     FM231000 VRB04KT 1SM BR SKC=

USA.gov is the U.S. government's official web portal to all federal, state and local government web resources and services.